Azamara Journey — 9HOB8 — position and weather

sailwx.info

Track history (hours):
 
Tides and Currents Weather Stations Pressure Air Temp Water Temp Dewpoint Dewpoint Depression Visibility Wind Speed Wind Dir Waves Ship Positions

Azamara Journey

Last reported at 2017-Jul-20 17:43 UTC. Time now 2017-Jul-20 18:38 UTC.
Position N 49°43' W 004°25'.

Type: Ship. MMSI: 256204000.

Date/timePositionNaut miles runAvg speedWind from/ knotsBaromVisibWave heightAir tempDewpointWater temp
2017-Jul-20 17:43N 49°43' W 004°25'916.8
2017-Jul-20 17:12N 49°41' W 004°12'316.5
2017-Jul-20 17:00N 49°40' W 004°07'816.0
2017-Jul-20 16:31N 49°39' W 003°55'915.5
2017-Jul-20 15:57N 49°37' W 003°42'715.5
2017-Jul-20 15:30N 49°35' W 003°32'815.5
2017-Jul-20 14:58N 49°32' W 003°19'23 1.9
2017-Jul-20 03:05N 49°50' W 002°56'114.8
2017-Jul-20 03:00N 49°51' W 002°57'714.8
2017-Jul-20 02:30N 49°58' W 003°01'713.8
2017-Jul-20 02:00N 50°04' W 003°06'510.3
2017-Jul-20 01:30N 50°09' W 003°04'611.5
2017-Jul-20 01:00N 50°09' W 002°55'611.8
2017-Jul-20 00:30N 50°10' W 002°46'3911.6
2017-Jul-19 21:08N 50°20' W 001°47'1311.2
2017-Jul-19 20:00N 50°32' W 001°40'611.3
2017-Jul-19 19:30N 50°37' W 001°38'713.6
2017-Jul-19 19:00N 50°43' W 001°31'714.4
2017-Jul-19 18:30N 50°46' W 001°21'5 9.3
2017-Jul-19 18:00N 50°50' W 001°19'5 8.6
2017-Jul-19 17:25N 50°54' W 001°25'0 0.0
2017-Jul-19 04:51N 50°54' W 001°25'3 8.2
2017-Jul-19 04:30N 50°52' W 001°22'611.6
2017-Jul-19 04:00N 50°46' W 001°18'713.9
2017-Jul-19 03:30N 50°45' W 001°07'713.9
2017-Jul-19 03:00N 50°42' W 000°58'4 8.0
2017-Jul-19 02:30N 50°39' W 000°53'510.2
2017-Jul-19 02:00N 50°37' W 000°46'612.5
2017-Jul-19 01:30N 50°36' W 000°36'713.1
2017-Jul-19 01:00N 50°34' W 000°26'611.5
2017-Jul-19 00:30N 50°33' W 000°17'611.8
2017-Jul-19 00:01N 50°32' W 000°08'611.2
2017-Jul-18 23:30N 50°32' E 000°01'611.9
2017-Jul-18 23:00N 50°33' E 000°10'611.9
2017-Jul-18 22:30N 50°35' E 000°19'612.0
2017-Jul-18 22:01N 50°37' E 000°28'612.1
2017-Jul-18 21:30N 50°39' E 000°37'612.2
2017-Jul-18 21:00N 50°43' E 000°44'612.4
2017-Jul-18 20:30N 50°46' E 000°52'812.3
2017-Jul-18 19:51N 50°51' E 001°02'513.8
2017-Jul-18 19:30N 50°54' E 001°08'714.2
2017-Jul-18 19:00N 50°59' E 001°16'713.9
2017-Jul-18 18:30N 51°04' E 001°25'714.7
2017-Jul-18 18:00N 51°08' E 001°34'714.8
2017-Jul-18 17:31N 51°14' E 001°40'815.5
2017-Jul-18 17:00N 51°22' E 001°44'815.9
2017-Jul-18 16:31N 51°30' E 001°45'816.8
2017-Jul-18 16:01N 51°38' E 001°45'917.2
2017-Jul-18 15:31N 51°47' E 001°45'917.1
2017-Jul-18 15:00N 51°55' E 001°46'1717.3
2017-Jul-18 14:00N 52°12' E 001°52'916.9
2017-Jul-18 13:30N 52°20' E 001°55'816.6
2017-Jul-18 13:00N 52°28' E 001°58'816.0
2017-Jul-18 12:30N 52°36' E 002°02'815.6
2017-Jul-18 12:00N 52°43' E 002°06'714.6
2017-Jul-18 11:30N 52°50' E 002°03'714.5
2017-Jul-18 11:00N 52°57' E 001°58'714.2
2017-Jul-18 10:30N 53°03' E 001°52'713.7
2017-Jul-18 10:00N 53°09' E 001°47'714.0
2017-Jul-18 09:30N 53°16' E 001°42'714.1
2017-Jul-18 09:01N 53°23' E 001°41'713.8
2017-Jul-18 08:30N 53°29' E 001°38'1113.9
2017-Jul-18 07:42N 53°40' E 001°33'314.0
2017-Jul-18 07:30N 53°43' E 001°31'814.2
2017-Jul-18 06:57N 53°50' E 001°27'2714.2
2017-Jul-18 05:03N 54°16' E 001°13'114.1
2017-Jul-18 05:00N 54°17' E 001°12'1314.5
2017-Jul-18 04:05N 54°29' E 001°05'114.5
2017-Jul-18 04:00N 54°30' E 001°04'714.5
2017-Jul-18 03:30N 54°37' E 001°00'714.4
2017-Jul-18 03:01N 54°44' E 000°56'714.7
2017-Jul-18 02:31N 54°51' E 000°53'714.5
2017-Jul-18 02:00N 54°58' E 000°49'714.7
2017-Jul-18 01:31N 55°05' E 000°45'1314.5
2017-Jul-18 00:36N 55°17' E 000°38'214.5
2017-Jul-18 00:29N 55°19' E 000°37'816.5
2017-Jul-18 00:00N 55°26' E 000°32'42216.8
2017-Jul-16 22:50N 61°35' W 006°01'517.0
2017-Jul-16 22:30N 61°39' W 006°09'816.9
2017-Jul-16 22:01N 61°45' W 006°20'816.9
2017-Jul-16 21:31N 61°52' W 006°31'816.9
2017-Jul-16 21:00N 61°59' W 006°43'2 4.7
2017-Jul-16 20:30N 62°00' W 006°46'0 0.0
2017-Jul-16 19:59N 62°00' W 006°46'0 0.0
2017-Jul-16 19:29N 62°00' W 006°46'0 0.0
2017-Jul-16 18:59N 62°00' W 006°46'0 0.0
2017-Jul-16 18:29N 62°00' W 006°46'0 0.0
2017-Jul-16 17:59N 62°00' W 006°46'0 0.0
2017-Jul-16 17:29N 62°00' W 006°46'0 0.0
2017-Jul-16 16:59N 62°00' W 006°46'0 0.0
2017-Jul-16 16:29N 62°00' W 006°46'0 0.0
2017-Jul-16 15:59N 62°00' W 006°46'0 0.0
2017-Jul-16 15:29N 62°00' W 006°46'0 0.0
2017-Jul-16 14:59N 62°00' W 006°46'0 0.0
2017-Jul-16 14:29N 62°00' W 006°46'0 0.0
2017-Jul-16 13:59N 62°00' W 006°46'0 0.0
2017-Jul-16 13:29N 62°00' W 006°46'0 0.0
2017-Jul-16 12:59N 62°00' W 006°46'0 0.0
2017-Jul-16 12:29N 62°00' W 006°46'0 0.0
2017-Jul-16 11:59N 62°00' W 006°46'0 0.0
2017-Jul-16 11:29N 62°00' W 006°46'0 0.0
2017-Jul-16 10:59N 62°00' W 006°46'0 0.0
2017-Jul-16 10:29N 62°00' W 006°46'0 0.0
2017-Jul-16 09:59N 62°00' W 006°46'0 0.0
2017-Jul-16 09:29N 62°00' W 006°46'0 0.0
2017-Jul-16 08:59N 62°00' W 006°46'0 0.0
2017-Jul-16 08:29N 62°00' W 006°46'0 0.0
2017-Jul-16 07:59N 62°00' W 006°46'0 0.0
2017-Jul-16 07:29N 62°00' W 006°46'0 0.0
2017-Jul-16 06:59N 62°00' W 006°46'0 0.2
2017-Jul-16 06:31N 62°00' W 006°46'1 2.1
2017-Jul-16 06:01N 61°60' W 006°44'4 8.6
2017-Jul-16 05:30N 61°56' W 006°46'610.8
2017-Jul-16 04:55N 61°56' W 006°59'511.1
2017-Jul-16 04:31N 61°56' W 007°09'612.4
2017-Jul-16 04:01N 61°57' W 007°22'612.8
2017-Jul-16 03:30N 61°58' W 007°36'  
Track history (hours):
 
Tides and Currents Weather Stations Pressure Air Temp Water Temp Dewpoint Dewpoint Depression Visibility Wind Speed Wind Dir Waves Ship Positions

Azamara Journey

Last reported at 2017-Jul-20 17:43 UTC. Time now 2017-Jul-20 18:38 UTC.
Position N 49°43' W 004°25'.

Type: Ship. MMSI: 256204000.

Date/timePositionNaut miles runAvg speedWind from/ knotsBaromVisibWave heightAir tempDewpointWater temp
2017-Jul-20 17:43N 49°43' W 004°25'916.8
2017-Jul-20 17:12N 49°41' W 004°12'316.5
2017-Jul-20 17:00N 49°40' W 004°07'816.0
2017-Jul-20 16:31N 49°39' W 003°55'915.5
2017-Jul-20 15:57N 49°37' W 003°42'715.5
2017-Jul-20 15:30N 49°35' W 003°32'815.5
2017-Jul-20 14:58N 49°32' W 003°19'23 1.9
2017-Jul-20 03:05N 49°50' W 002°56'114.8
2017-Jul-20 03:00N 49°51' W 002°57'714.8
2017-Jul-20 02:30N 49°58' W 003°01'713.8
2017-Jul-20 02:00N 50°04' W 003°06'510.3
2017-Jul-20 01:30N 50°09' W 003°04'611.5
2017-Jul-20 01:00N 50°09' W 002°55'611.8
2017-Jul-20 00:30N 50°10' W 002°46'3911.6
2017-Jul-19 21:08N 50°20' W 001°47'1311.2
2017-Jul-19 20:00N 50°32' W 001°40'611.3
2017-Jul-19 19:30N 50°37' W 001°38'713.6
2017-Jul-19 19:00N 50°43' W 001°31'714.4
2017-Jul-19 18:30N 50°46' W 001°21'5 9.3
2017-Jul-19 18:00N 50°50' W 001°19'5 8.6
2017-Jul-19 17:25N 50°54' W 001°25'0 0.0
2017-Jul-19 04:51N 50°54' W 001°25'3 8.2
2017-Jul-19 04:30N 50°52' W 001°22'611.6
2017-Jul-19 04:00N 50°46' W 001°18'713.9
2017-Jul-19 03:30N 50°45' W 001°07'713.9
2017-Jul-19 03:00N 50°42' W 000°58'4 8.0
2017-Jul-19 02:30N 50°39' W 000°53'510.2
2017-Jul-19 02:00N 50°37' W 000°46'612.5
2017-Jul-19 01:30N 50°36' W 000°36'713.1
2017-Jul-19 01:00N 50°34' W 000°26'611.5
2017-Jul-19 00:30N 50°33' W 000°17'611.8
2017-Jul-19 00:01N 50°32' W 000°08'611.2
2017-Jul-18 23:30N 50°32' E 000°01'611.9
2017-Jul-18 23:00N 50°33' E 000°10'611.9
2017-Jul-18 22:30N 50°35' E 000°19'612.0
2017-Jul-18 22:01N 50°37' E 000°28'612.1
2017-Jul-18 21:30N 50°39' E 000°37'612.2
2017-Jul-18 21:00N 50°43' E 000°44'612.4
2017-Jul-18 20:30N 50°46' E 000°52'812.3
2017-Jul-18 19:51N 50°51' E 001°02'513.8
2017-Jul-18 19:30N 50°54' E 001°08'714.2
2017-Jul-18 19:00N 50°59' E 001°16'713.9
2017-Jul-18 18:30N 51°04' E 001°25'714.7
2017-Jul-18 18:00N 51°08' E 001°34'714.8
2017-Jul-18 17:31N 51°14' E 001°40'815.5
2017-Jul-18 17:00N 51°22' E 001°44'815.9
2017-Jul-18 16:31N 51°30' E 001°45'816.8
2017-Jul-18 16:01N 51°38' E 001°45'917.2
2017-Jul-18 15:31N 51°47' E 001°45'917.1
2017-Jul-18 15:00N 51°55' E 001°46'1717.3
2017-Jul-18 14:00N 52°12' E 001°52'916.9
2017-Jul-18 13:30N 52°20' E 001°55'816.6
2017-Jul-18 13:00N 52°28' E 001°58'816.0
2017-Jul-18 12:30N 52°36' E 002°02'815.6
2017-Jul-18 12:00N 52°43' E 002°06'714.6
2017-Jul-18 11:30N 52°50' E 002°03'714.5
2017-Jul-18 11:00N 52°57' E 001°58'714.2
2017-Jul-18 10:30N 53°03' E 001°52'713.7
2017-Jul-18 10:00N 53°09' E 001°47'714.0
2017-Jul-18 09:30N 53°16' E 001°42'714.1
2017-Jul-18 09:01N 53°23' E 001°41'713.8
2017-Jul-18 08:30N 53°29' E 001°38'1113.9
2017-Jul-18 07:42N 53°40' E 001°33'314.0
2017-Jul-18 07:30N 53°43' E 001°31'814.2
2017-Jul-18 06:57N 53°50' E 001°27'2714.2
2017-Jul-18 05:03N 54°16' E 001°13'114.1
2017-Jul-18 05:00N 54°17' E 001°12'1314.5
2017-Jul-18 04:05N 54°29' E 001°05'114.5
2017-Jul-18 04:00N 54°30' E 001°04'714.5
2017-Jul-18 03:30N 54°37' E 001°00'714.4
2017-Jul-18 03:01N 54°44' E 000°56'714.7
2017-Jul-18 02:31N 54°51' E 000°53'714.5
2017-Jul-18 02:00N 54°58' E 000°49'714.7
2017-Jul-18 01:31N 55°05' E 000°45'1314.5
2017-Jul-18 00:36N 55°17' E 000°38'214.5
2017-Jul-18 00:29N 55°19' E 000°37'816.5
2017-Jul-18 00:00N 55°26' E 000°32'42216.8
2017-Jul-16 22:50N 61°35' W 006°01'517.0
2017-Jul-16 22:30N 61°39' W 006°09'816.9
2017-Jul-16 22:01N 61°45' W 006°20'816.9
2017-Jul-16 21:31N 61°52' W 006°31'816.9
2017-Jul-16 21:00N 61°59' W 006°43'2 4.7
2017-Jul-16 20:30N 62°00' W 006°46'0 0.0
2017-Jul-16 19:59N 62°00' W 006°46'0 0.0
2017-Jul-16 19:29N 62°00' W 006°46'0 0.0
2017-Jul-16 18:59N 62°00' W 006°46'0 0.0
2017-Jul-16 18:29N 62°00' W 006°46'0 0.0
2017-Jul-16 17:59N 62°00' W 006°46'0 0.0
2017-Jul-16 17:29N 62°00' W 006°46'0 0.0
2017-Jul-16 16:59N 62°00' W 006°46'0 0.0
2017-Jul-16 16:29N 62°00' W 006°46'0 0.0
2017-Jul-16 15:59N 62°00' W 006°46'0 0.0
2017-Jul-16 15:29N 62°00' W 006°46'0 0.0
2017-Jul-16 14:59N 62°00' W 006°46'0 0.0
2017-Jul-16 14:29N 62°00' W 006°46'0 0.0
2017-Jul-16 13:59N 62°00' W 006°46'0 0.0
2017-Jul-16 13:29N 62°00' W 006°46'0 0.0
2017-Jul-16 12:59N 62°00' W 006°46'0 0.0
2017-Jul-16 12:29N 62°00' W 006°46'0 0.0
2017-Jul-16 11:59N 62°00' W 006°46'0 0.0
2017-Jul-16 11:29N 62°00' W 006°46'0 0.0
2017-Jul-16 10:59N 62°00' W 006°46'0 0.0
2017-Jul-16 10:29N 62°00' W 006°46'0 0.0
2017-Jul-16 09:59N 62°00' W 006°46'0 0.0
2017-Jul-16 09:29N 62°00' W 006°46'0 0.0
2017-Jul-16 08:59N 62°00' W 006°46'0 0.0
2017-Jul-16 08:29N 62°00' W 006°46'0 0.0
2017-Jul-16 07:59N 62°00' W 006°46'0 0.0
2017-Jul-16 07:29N 62°00' W 006°46'0 0.0
2017-Jul-16 06:59N 62°00' W 006°46'0 0.2
2017-Jul-16 06:31N 62°00' W 006°46'1 2.1
2017-Jul-16 06:01N 61°60' W 006°44'4 8.6
2017-Jul-16 05:30N 61°56' W 006°46'610.8
2017-Jul-16 04:55N 61°56' W 006°59'511.1
2017-Jul-16 04:31N 61°56' W 007°09'612.4
2017-Jul-16 04:01N 61°57' W 007°22'612.8
2017-Jul-16 03:30N 61°58' W 007°36'  

Dump ship's entire track history